sensor_id;sensor_type;location;lat;lon;timestamp;pressure;altitude;pressure_sealevel;temperature;humidity
68594;BME280;55563;52.416;13.548;2022-07-23T00:01:46;101296.34;;;17.49;81.10
68594;BME280;55563;52.416;13.548;2022-07-23T00:03:48;101291.31;;;17.66;80.35
68594;BME280;55563;52.416;13.548;2022-07-23T00:05:49;101290.53;;;17.47;81.49
68594;BME280;55563;52.416;13.548;2022-07-23T00:07:49;101277.03;;;17.43;80.97
68594;BME280;55563;52.416;13.548;2022-07-23T00:09:50;101280.75;;;17.42;80.72
68594;BME280;55563;52.416;13.548;2022-07-23T00:11:50;101282.41;;;17.57;80.62
68594;BME280;55563;52.416;13.548;2022-07-23T00:13:51;101276.88;;;17.16;83.40
68594;BME280;55563;52.416;13.548;2022-07-23T00:15:52;101275.03;;;17.35;82.32
68594;BME280;55563;52.416;13.548;2022-07-23T00:17:52;101267.69;;;17.46;81.73
68594;BME280;55563;52.416;13.548;2022-07-23T00:19:53;101270.06;;;17.47;81.69
68594;BME280;55563;52.416;13.548;2022-07-23T00:21:54;101258.88;;;17.50;81.52
68594;BME280;55563;52.416;13.548;2022-07-23T00:23:55;101260.34;;;17.56;80.75
68594;BME280;55563;52.416;13.548;2022-07-23T00:25:55;101258.78;;;17.55;81.50
68594;BME280;55563;52.416;13.548;2022-07-23T00:27:57;101253.53;;;17.50;81.40
68594;BME280;55563;52.416;13.548;2022-07-23T00:29:58;101255.34;;;17.55;81.32
68594;BME280;55563;52.416;13.548;2022-07-23T00:31:59;101262.00;;;17.52;81.85
68594;BME280;55563;52.416;13.548;2022-07-23T00:33:59;101257.47;;;17.53;81.54
68594;BME280;55563;52.416;13.548;2022-07-23T00:36:01;101254.53;;;17.54;81.18
68594;BME280;55563;52.416;13.548;2022-07-23T00:38:02;101258.28;;;17.53;80.93
68594;BME280;55563;52.416;13.548;2022-07-23T00:40:03;101260.66;;;17.55;80.90
68594;BME280;55563;52.416;13.548;2022-07-23T00:42:04;101259.94;;;17.49;81.05
68594;BME280;55563;52.416;13.548;2022-07-23T00:44:20;101248.88;;;17.23;82.36
68594;BME280;55563;52.416;13.548;2022-07-23T00:46:22;101253.91;;;17.06;82.75
68594;BME280;55563;52.416;13.548;2022-07-23T00:48:23;101253.94;;;16.82;84.21
68594;BME280;55563;52.416;13.548;2022-07-23T00:50:24;101251.72;;;16.89;83.37
68594;BME280;55563;52.416;13.548;2022-07-23T00:52:25;101247.41;;;17.12;82.49
68594;BME280;55563;52.416;13.548;2022-07-23T00:54:27;101261.88;;;17.25;82.49
68594;BME280;55563;52.416;13.548;2022-07-23T00:56:29;101266.06;;;17.31;82.18
68594;BME280;55563;52.416;13.548;2022-07-23T00:58:30;101262.28;;;17.32;82.18
68594;BME280;55563;52.416;13.548;2022-07-23T01:00:31;101268.34;;;17.37;81.70
68594;BME280;55563;52.416;13.548;2022-07-23T01:02:32;101250.97;;;17.26;82.21
68594;BME280;55563;52.416;13.548;2022-07-23T01:04:33;101256.97;;;17.13;82.49
68594;BME280;55563;52.416;13.548;2022-07-23T01:06:37;101258.16;;;17.26;81.97
68594;BME280;55563;52.416;13.548;2022-07-23T01:08:38;101264.00;;;17.04;83.11
68594;BME280;55563;52.416;13.548;2022-07-23T01:10:39;101261.47;;;16.94;83.22
68594;BME280;55563;52.416;13.548;2022-07-23T01:12:40;101257.34;;;17.07;82.40
68594;BME280;55563;52.416;13.548;2022-07-23T01:14:40;101267.69;;;17.27;81.69
68594;BME280;55563;52.416;13.548;2022-07-23T01:16:42;101260.94;;;17.34;81.48
68594;BME280;55563;52.416;13.548;2022-07-23T01:18:43;101265.19;;;17.35;81.63
68594;BME280;55563;52.416;13.548;2022-07-23T01:20:44;101268.63;;;17.36;82.21
68594;BME280;55563;52.416;13.548;2022-07-23T01:22:45;101256.63;;;17.38;82.02
68594;BME280;55563;52.416;13.548;2022-07-23T01:24:47;101259.06;;;17.35;82.52
68594;BME280;55563;52.416;13.548;2022-07-23T01:26:49;101256.78;;;17.10;83.32
68594;BME280;55563;52.416;13.548;2022-07-23T01:28:51;101258.78;;;17.18;82.70
68594;BME280;55563;52.416;13.548;2022-07-23T01:30:52;101253.09;;;17.06;82.86
68594;BME280;55563;52.416;13.548;2022-07-23T01:32:52;101242.63;;;16.95;83.44
68594;BME280;55563;52.416;13.548;2022-07-23T01:34:53;101245.00;;;16.97;82.91
68594;BME280;55563;52.416;13.548;2022-07-23T01:36:54;101238.69;;;17.12;82.75
68594;BME280;55563;52.416;13.548;2022-07-23T01:38:55;101237.75;;;17.21;82.90
68594;BME280;55563;52.416;13.548;2022-07-23T01:40:56;101232.44;;;17.21;82.76
68594;BME280;55563;52.416;13.548;2022-07-23T01:43:03;101218.94;;;17.18;82.68
68594;BME280;55563;52.416;13.548;2022-07-23T01:45:05;101221.97;;;17.11;82.54
68594;BME280;55563;52.416;13.548;2022-07-23T01:47:07;101228.34;;;17.10;82.73
68594;BME280;55563;52.416;13.548;2022-07-23T01:49:08;101227.19;;;17.16;82.61
68594;BME280;55563;52.416;13.548;2022-07-23T01:51:29;101233.22;;;17.22;82.10
68594;BME280;55563;52.416;13.548;2022-07-23T01:53:36;101230.06;;;17.20;83.02
68594;BME280;55563;52.416;13.548;2022-07-23T01:55:37;101222.81;;;17.07;83.63
68594;BME280;55563;52.416;13.548;2022-07-23T01:57:38;101217.41;;;16.93;83.76
68594;BME280;55563;52.416;13.548;2022-07-23T01:59:40;101218.13;;;16.80;83.97
68594;BME280;55563;52.416;13.548;2022-07-23T02:01:42;101214.19;;;16.77;83.74
68594;BME280;55563;52.416;13.548;2022-07-23T02:03:43;101209.94;;;16.76;83.68
68594;BME280;55563;52.416;13.548;2022-07-23T02:05:44;101212.09;;;16.93;83.11
68594;BME280;55563;52.416;13.548;2022-07-23T02:07:45;101208.03;;;17.00;83.05
68594;BME280;55563;52.416;13.548;2022-07-23T02:09:46;101210.88;;;17.04;82.72
68594;BME280;55563;52.416;13.548;2022-07-23T02:11:46;101213.00;;;17.07;82.54
68594;BME280;55563;52.416;13.548;2022-07-23T02:13:47;101221.09;;;16.97;83.36
68594;BME280;55563;52.416;13.548;2022-07-23T02:15:48;101228.72;;;16.80;83.87
68594;BME280;55563;52.416;13.548;2022-07-23T02:17:49;101231.31;;;16.85;83.73
68594;BME280;55563;52.416;13.548;2022-07-23T02:19:49;101226.41;;;16.97;83.20
68594;BME280;55563;52.416;13.548;2022-07-23T02:21:50;101229.28;;;17.00;82.97
68594;BME280;55563;52.416;13.548;2022-07-23T02:23:53;101218.84;;;17.04;82.92
68594;BME280;55563;52.416;13.548;2022-07-23T02:25:54;101225.47;;;17.07;83.56
68594;BME280;55563;52.416;13.548;2022-07-23T02:27:55;101230.28;;;17.05;83.40
68594;BME280;55563;52.416;13.548;2022-07-23T02:29:56;101221.44;;;16.90;84.31
68594;BME280;55563;52.416;13.548;2022-07-23T02:31:57;101215.31;;;16.71;85.42
68594;BME280;55563;52.416;13.548;2022-07-23T02:33:58;101220.50;;;16.81;84.08
68594;BME280;55563;52.416;13.548;2022-07-23T02:36:00;101218.25;;;16.88;83.38
68594;BME280;55563;52.416;13.548;2022-07-23T02:38:00;101213.25;;;16.68;85.56
68594;BME280;55563;52.416;13.548;2022-07-23T02:40:02;101222.22;;;16.91;84.44
68594;BME280;55563;52.416;13.548;2022-07-23T02:42:05;101225.31;;;16.98;83.80
68594;BME280;55563;52.416;13.548;2022-07-23T02:44:08;101214.84;;;16.88;83.31
68594;BME280;55563;52.416;13.548;2022-07-23T02:46:09;101213.59;;;16.80;84.51
68594;BME280;55563;52.416;13.548;2022-07-23T02:48:11;101208.38;;;16.94;84.31
68594;BME280;55563;52.416;13.548;2022-07-23T02:50:13;101218.56;;;16.87;84.37
68594;BME280;55563;52.416;13.548;2022-07-23T02:54:43;101231.19;;;16.95;83.87
68594;BME280;55563;52.416;13.548;2022-07-23T02:56:47;101231.41;;;16.98;83.61
68594;BME280;55563;52.416;13.548;2022-07-23T02:58:48;101229.53;;;16.99;83.50
68594;BME280;55563;52.416;13.548;2022-07-23T03:00:49;101230.19;;;16.91;84.13
68594;BME280;55563;52.416;13.548;2022-07-23T03:02:50;101229.91;;;16.74;84.61
68594;BME280;55563;52.416;13.548;2022-07-23T03:04:50;101225.19;;;16.66;84.78
68594;BME280;55563;52.416;13.548;2022-07-23T03:06:51;101223.78;;;16.49;85.92
68594;BME280;55563;52.416;13.548;2022-07-23T03:08:52;101217.75;;;16.44;86.40
68594;BME280;55563;52.416;13.548;2022-07-23T03:10:53;101207.28;;;16.52;85.58
68594;BME280;55563;52.416;13.548;2022-07-23T03:12:54;101207.97;;;16.39;86.86
68594;BME280;55563;52.416;13.548;2022-07-23T03:14:55;101217.75;;;16.68;85.46
68594;BME280;55563;52.416;13.548;2022-07-23T03:16:55;101214.97;;;16.78;84.92
68594;BME280;55563;52.416;13.548;2022-07-23T03:18:56;101206.34;;;16.43;86.83
68594;BME280;55563;52.416;13.548;2022-07-23T03:20:57;101207.22;;;16.34;87.82
68594;BME280;55563;52.416;13.548;2022-07-23T03:22:57;101212.28;;;16.59;86.30
68594;BME280;55563;52.416;13.548;2022-07-23T03:24:58;101204.47;;;16.68;85.66
68594;BME280;55563;52.416;13.548;2022-07-23T03:27:04;101208.66;;;16.74;85.58
68594;BME280;55563;52.416;13.548;2022-07-23T03:29:05;101200.19;;;16.72;85.37
68594;BME280;55563;52.416;13.548;2022-07-23T03:31:06;101202.25;;;16.75;85.20
68594;BME280;55563;52.416;13.548;2022-07-23T03:33:07;101205.59;;;16.62;85.10
68594;BME280;55563;52.416;13.548;2022-07-23T03:35:08;101219.06;;;16.41;86.32
68594;BME280;55563;52.416;13.548;2022-07-23T03:37:16;101213.31;;;16.82;84.54
68594;BME280;55563;52.416;13.548;2022-07-23T03:39:17;101216.84;;;16.96;83.87
68594;BME280;55563;52.416;13.548;2022-07-23T03:41:18;101217.28;;;17.03;83.79
68594;BME280;55563;52.416;13.548;2022-07-23T03:43:19;101229.41;;;17.09;83.68
68594;BME280;55563;52.416;13.548;2022-07-23T03:45:20;101233.38;;;17.12;83.45
68594;BME280;55563;52.416;13.548;2022-07-23T03:47:21;101231.47;;;16.93;83.75
68594;BME280;55563;52.416;13.548;2022-07-23T03:49:22;101241.59;;;16.91;83.80
68594;BME280;55563;52.416;13.548;2022-07-23T03:51:23;101238.81;;;17.02;83.50
68594;BME280;55563;52.416;13.548;2022-07-23T03:53:24;101238.75;;;17.07;82.82
68594;BME280;55563;52.416;13.548;2022-07-23T03:55:24;101239.69;;;16.97;83.51
68594;BME280;55563;52.416;13.548;2022-07-23T03:57:25;101243.97;;;16.93;83.01
68594;BME280;55563;52.416;13.548;2022-07-23T03:59:26;101253.25;;;16.95;82.37
68594;BME280;55563;52.416;13.548;2022-07-23T04:01:26;101250.25;;;17.02;81.88
68594;BME280;55563;52.416;13.548;2022-07-23T04:03:27;101255.97;;;17.09;82.05
68594;BME280;55563;52.416;13.548;2022-07-23T04:05:29;101258.63;;;17.09;81.03
68594;BME280;55563;52.416;13.548;2022-07-23T04:07:39;101264.53;;;17.06;81.24
68594;BME280;55563;52.416;13.548;2022-07-23T04:09:40;101265.38;;;17.02;81.75
68594;BME280;55563;52.416;13.548;2022-07-23T04:11:42;101243.53;;;16.86;82.21
68594;BME280;55563;52.416;13.548;2022-07-23T04:13:43;101237.72;;;16.84;82.02
68594;BME280;55563;52.416;13.548;2022-07-23T04:15:44;101236.63;;;16.85;81.86
68594;BME280;55563;52.416;13.548;2022-07-23T04:17:44;101242.41;;;16.92;81.70
68594;BME280;55563;52.416;13.548;2022-07-23T04:19:47;101244.41;;;17.00;81.30
68594;BME280;55563;52.416;13.548;2022-07-23T04:21:51;101254.81;;;16.96;81.20
68594;BME280;55563;52.416;13.548;2022-07-23T04:23:52;101258.84;;;16.70;82.42
68594;BME280;55563;52.416;13.548;2022-07-23T04:25:54;101250.44;;;16.87;81.76
68594;BME280;55563;52.416;13.548;2022-07-23T04:27:55;101247.78;;;16.87;81.95
68594;BME280;55563;52.416;13.548;2022-07-23T04:29:57;101240.81;;;16.91;81.56
68594;BME280;55563;52.416;13.548;2022-07-23T04:31:57;101238.44;;;16.89;81.68
68594;BME280;55563;52.416;13.548;2022-07-23T04:33:58;101229.75;;;16.84;82.40
68594;BME280;55563;52.416;13.548;2022-07-23T04:35:59;101237.97;;;16.64;82.91
68594;BME280;55563;52.416;13.548;2022-07-23T04:38:00;101240.63;;;16.64;82.58
68594;BME280;55563;52.416;13.548;2022-07-23T04:40:01;101265.09;;;16.79;82.37
68594;BME280;55563;52.416;13.548;2022-07-23T04:42:02;101273.94;;;16.75;82.15
68594;BME280;55563;52.416;13.548;2022-07-23T04:44:04;101264.84;;;16.28;83.31
68594;BME280;55563;52.416;13.548;2022-07-23T04:46:05;101275.28;;;16.48;83.22
68594;BME280;55563;52.416;13.548;2022-07-23T04:48:13;101284.59;;;16.70;81.79
68594;BME280;55563;52.416;13.548;2022-07-23T04:50:14;101284.72;;;16.60;84.32
68594;BME280;55563;52.416;13.548;2022-07-23T04:52:19;101278.28;;;16.66;85.90
68594;BME280;55563;52.416;13.548;2022-07-23T04:54:19;101270.81;;;16.44;86.80
68594;BME280;55563;52.416;13.548;2022-07-23T04:56:20;101286.94;;;16.47;88.62
68594;BME280;55563;52.416;13.548;2022-07-23T04:58:21;101295.75;;;16.43;88.71
68594;BME280;55563;52.416;13.548;2022-07-23T05:00:22;101288.97;;;16.32;88.92
68594;BME280;55563;52.416;13.548;2022-07-23T05:02:23;101291.03;;;16.11;88.57
68594;BME280;55563;52.416;13.548;2022-07-23T05:04:23;101254.63;;;15.49;91.54
68594;BME280;55563;52.416;13.548;2022-07-23T05:06:24;101247.97;;;15.07;93.18
68594;BME280;55563;52.416;13.548;2022-07-23T05:08:25;101268.84;;;15.19;93.02
68594;BME280;55563;52.416;13.548;2022-07-23T05:10:29;101251.03;;;15.35;91.74
68594;BME280;55563;52.416;13.548;2022-07-23T05:12:29;101256.25;;;15.40;93.12
68594;BME280;55563;52.416;13.548;2022-07-23T05:14:30;101279.44;;;15.68;92.18
68594;BME280;55563;52.416;13.548;2022-07-23T05:16:31;101285.22;;;15.70;91.37
68594;BME280;55563;52.416;13.548;2022-07-23T05:18:37;101270.09;;;15.76;91.78
68594;BME280;55563;52.416;13.548;2022-07-23T05:20:37;101272.25;;;15.68;91.94
68594;BME280;55563;52.416;13.548;2022-07-23T05:22:38;101274.69;;;15.11;92.33
68594;BME280;55563;52.416;13.548;2022-07-23T05:24:39;101273.28;;;15.34;92.82
68594;BME280;55563;52.416;13.548;2022-07-23T05:26:42;101268.38;;;15.07;94.07
68594;BME280;55563;52.416;13.548;2022-07-23T05:28:43;101279.13;;;15.25;93.82
68594;BME280;55563;52.416;13.548;2022-07-23T05:30:43;101286.69;;;15.52;92.80
68594;BME280;55563;52.416;13.548;2022-07-23T05:32:49;101296.06;;;15.74;91.51
68594;BME280;55563;52.416;13.548;2022-07-23T05:34:52;101286.94;;;15.90;90.29
68594;BME280;55563;52.416;13.548;2022-07-23T05:36:52;101282.22;;;15.87;91.38
68594;BME280;55563;52.416;13.548;2022-07-23T05:38:54;101279.34;;;15.78;92.06
68594;BME280;55563;52.416;13.548;2022-07-23T05:40:55;101278.59;;;15.73;92.47
68594;BME280;55563;52.416;13.548;2022-07-23T05:42:57;101278.69;;;15.62;91.89
68594;BME280;55563;52.416;13.548;2022-07-23T05:44:57;101288.13;;;15.74;90.86
68594;BME280;55563;52.416;13.548;2022-07-23T05:46:58;101294.50;;;15.23;92.46
68594;BME280;55563;52.416;13.548;2022-07-23T05:49:02;101293.56;;;14.99;94.48
68594;BME280;55563;52.416;13.548;2022-07-23T05:51:23;101292.00;;;15.47;92.02
68594;BME280;55563;52.416;13.548;2022-07-23T05:53:25;101302.94;;;15.31;93.83
68594;BME280;55563;52.416;13.548;2022-07-23T05:55:45;101312.72;;;15.30;92.54
68594;BME280;55563;52.416;13.548;2022-07-23T05:57:46;101306.28;;;15.46;92.15
68594;BME280;55563;52.416;13.548;2022-07-23T05:59:47;101276.69;;;14.80;95.41
68594;BME280;55563;52.416;13.548;2022-07-23T06:01:47;101277.00;;;15.27;93.23
68594;BME280;55563;52.416;13.548;2022-07-23T06:03:48;101286.34;;;15.15;93.31
68594;BME280;55563;52.416;13.548;2022-07-23T06:05:49;101298.59;;;15.55;91.75
68594;BME280;55563;52.416;13.548;2022-07-23T06:07:50;101292.59;;;15.34;92.50
68594;BME280;55563;52.416;13.548;2022-07-23T06:09:51;101275.28;;;15.52;92.86
68594;BME280;55563;52.416;13.548;2022-07-23T06:11:53;101280.03;;;15.55;92.37
68594;BME280;55563;52.416;13.548;2022-07-23T06:13:53;101276.50;;;15.20;93.11
68594;BME280;55563;52.416;13.548;2022-07-23T06:15:58;101277.22;;;15.36;93.59
68594;BME280;55563;52.416;13.548;2022-07-23T06:17:59;101276.34;;;15.51;92.14
68594;BME280;55563;52.416;13.548;2022-07-23T06:19:59;101294.09;;;15.55;91.89
68594;BME280;55563;52.416;13.548;2022-07-23T06:22:00;101276.06;;;15.57;92.59
68594;BME280;55563;52.416;13.548;2022-07-23T06:24:02;101274.47;;;15.56;92.29
68594;BME280;55563;52.416;13.548;2022-07-23T06:26:03;101270.88;;;15.32;94.34
68594;BME280;55563;52.416;13.548;2022-07-23T06:28:04;101263.91;;;15.46;94.31
68594;BME280;55563;52.416;13.548;2022-07-23T06:30:05;101275.28;;;15.47;92.55
68594;BME280;55563;52.416;13.548;2022-07-23T06:32:08;101282.50;;;15.36;92.30
68594;BME280;55563;52.416;13.548;2022-07-23T06:34:09;101288.41;;;15.28;91.67
68594;BME280;55563;52.416;13.548;2022-07-23T06:36:10;101296.81;;;15.35;94.08
68594;BME280;55563;52.416;13.548;2022-07-23T06:38:11;101291.28;;;15.32;93.94
68594;BME280;55563;52.416;13.548;2022-07-23T06:40:11;101286.78;;;15.32;92.99
68594;BME280;55563;52.416;13.548;2022-07-23T06:42:14;101270.44;;;15.20;93.46
68594;BME280;55563;52.416;13.548;2022-07-23T06:44:19;101260.03;;;14.74;98.06
68594;BME280;55563;52.416;13.548;2022-07-23T06:46:22;101265.88;;;14.71;99.08
68594;BME280;55563;52.416;13.548;2022-07-23T06:48:24;101261.19;;;15.12;96.59
68594;BME280;55563;52.416;13.548;2022-07-23T06:50:24;101259.50;;;14.72;99.26
68594;BME280;55563;52.416;13.548;2022-07-23T06:52:25;101272.50;;;15.28;96.25
68594;BME280;55563;52.416;13.548;2022-07-23T06:54:26;101283.31;;;15.37;96.16
68594;BME280;55563;52.416;13.548;2022-07-23T06:56:27;101283.06;;;15.33;94.60
68594;BME280;55563;52.416;13.548;2022-07-23T06:58:28;101279.91;;;15.26;95.07
68594;BME280;55563;52.416;13.548;2022-07-23T07:00:29;101274.94;;;15.19;95.50
68594;BME280;55563;52.416;13.548;2022-07-23T07:02:32;101277.66;;;15.58;92.80
68594;BME280;55563;52.416;13.548;2022-07-23T07:04:33;101295.53;;;15.77;93.31
68594;BME280;55563;52.416;13.548;2022-07-23T07:06:34;101289.19;;;15.28;93.54
68594;BME280;55563;52.416;13.548;2022-07-23T07:08:35;101286.56;;;15.23;95.78
68594;BME280;55563;52.416;13.548;2022-07-23T07:10:35;101298.22;;;15.22;95.44
68594;BME280;55563;52.416;13.548;2022-07-23T07:12:36;101295.50;;;15.38;95.54
68594;BME280;55563;52.416;13.548;2022-07-23T07:14:37;101295.00;;;15.25;94.62
68594;BME280;55563;52.416;13.548;2022-07-23T07:16:37;101277.28;;;15.21;95.14
68594;BME280;55563;52.416;13.548;2022-07-23T07:18:38;101261.69;;;15.19;96.48
68594;BME280;55563;52.416;13.548;2022-07-23T07:20:39;101277.50;;;15.35;95.45
68594;BME280;55563;52.416;13.548;2022-07-23T07:22:39;101280.63;;;15.42;96.05
68594;BME280;55563;52.416;13.548;2022-07-23T07:24:40;101294.75;;;15.76;94.23
68594;BME280;55563;52.416;13.548;2022-07-23T07:26:40;101299.44;;;15.84;93.53
68594;BME280;55563;52.416;13.548;2022-07-23T07:28:41;101305.72;;;15.93;93.44
68594;BME280;55563;52.416;13.548;2022-07-23T07:30:42;101294.91;;;15.90;91.79
68594;BME280;55563;52.416;13.548;2022-07-23T07:32:42;101295.50;;;15.82;91.92
68594;BME280;55563;52.416;13.548;2022-07-23T07:34:43;101290.88;;;15.92;90.82
68594;BME280;55563;52.416;13.548;2022-07-23T07:36:44;101287.78;;;15.85;90.99
68594;BME280;55563;52.416;13.548;2022-07-23T07:38:44;101297.44;;;16.05;91.36
68594;BME280;55563;52.416;13.548;2022-07-23T07:40:45;101297.88;;;16.12;91.78
68594;BME280;55563;52.416;13.548;2022-07-23T07:42:51;101296.50;;;15.52;93.82
68594;BME280;55563;52.416;13.548;2022-07-23T07:44:52;101282.69;;;15.55;93.31
68594;BME280;55563;52.416;13.548;2022-07-23T07:46:52;101279.50;;;15.58;93.15
68594;BME280;55563;52.416;13.548;2022-07-23T07:48:53;101273.31;;;15.73;93.12
68594;BME280;55563;52.416;13.548;2022-07-23T07:50:54;101274.38;;;15.72;93.09
68594;BME280;55563;52.416;13.548;2022-07-23T07:52:55;101271.88;;;15.41;94.92
68594;BME280;55563;52.416;13.548;2022-07-23T07:54:55;101269.50;;;15.40;97.12
68594;BME280;55563;52.416;13.548;2022-07-23T07:56:56;101264.13;;;15.55;96.36
68594;BME280;55563;52.416;13.548;2022-07-23T07:58:57;101265.31;;;15.78;96.77
68594;BME280;55563;52.416;13.548;2022-07-23T08:00:57;101271.59;;;15.53;95.28
68594;BME280;55563;52.416;13.548;2022-07-23T08:02:58;101264.69;;;15.52;95.48
68594;BME280;55563;52.416;13.548;2022-07-23T08:04:59;101248.63;;;15.33;97.93
68594;BME280;55563;52.416;13.548;2022-07-23T08:06:59;101244.25;;;15.57;97.58
68594;BME280;55563;52.416;13.548;2022-07-23T08:09:00;101244.16;;;16.01;95.73
68594;BME280;55563;52.416;13.548;2022-07-23T08:11:01;101237.75;;;16.31;93.72
68594;BME280;55563;52.416;13.548;2022-07-23T08:13:02;101242.47;;;16.39;94.93
68594;BME280;55563;52.416;13.548;2022-07-23T08:15:02;101243.75;;;16.42;92.62
68594;BME280;55563;52.416;13.548;2022-07-23T08:17:03;101250.34;;;16.73;91.86
68594;BME280;55563;52.416;13.548;2022-07-23T08:19:04;101257.91;;;17.41;89.75
68594;BME280;55563;52.416;13.548;2022-07-23T08:21:04;101254.75;;;16.59;90.77
68594;BME280;55563;52.416;13.548;2022-07-23T08:23:06;101257.34;;;17.07;91.06
68594;BME280;55563;52.416;13.548;2022-07-23T08:25:07;101258.84;;;18.01;88.96
68594;BME280;55563;52.416;13.548;2022-07-23T08:27:08;101264.22;;;18.28;87.21
68594;BME280;55563;52.416;13.548;2022-07-23T08:29:10;101264.03;;;18.52;85.60
68594;BME280;55563;52.416;13.548;2022-07-23T08:31:10;101268.56;;;18.52;84.38
68594;BME280;55563;52.416;13.548;2022-07-23T08:33:14;101274.06;;;18.42;86.57
68594;BME280;55563;52.416;13.548;2022-07-23T08:35:16;101279.03;;;18.48;85.73
68594;BME280;55563;52.416;13.548;2022-07-23T08:37:16;101269.88;;;18.68;84.40
68594;BME280;55563;52.416;13.548;2022-07-23T08:39:17;101276.63;;;18.19;82.00
68594;BME280;55563;52.416;13.548;2022-07-23T08:41:17;101271.41;;;18.28;83.96
68594;BME280;55563;52.416;13.548;2022-07-23T08:43:23;101257.28;;;18.14;82.26
68594;BME280;55563;52.416;13.548;2022-07-23T08:45:25;101266.22;;;18.50;84.73
68594;BME280;55563;52.416;13.548;2022-07-23T08:47:26;101267.22;;;18.68;82.06
68594;BME280;55563;52.416;13.548;2022-07-23T08:49:28;101269.25;;;18.44;81.49
68594;BME280;55563;52.416;13.548;2022-07-23T08:51:29;101253.09;;;18.40;82.93
68594;BME280;55563;52.416;13.548;2022-07-23T08:53:31;101266.41;;;18.81;83.22
68594;BME280;55563;52.416;13.548;2022-07-23T08:55:32;101271.16;;;18.98;81.04
68594;BME280;55563;52.416;13.548;2022-07-23T08:57:33;101277.19;;;19.62;78.23
68594;BME280;55563;52.416;13.548;2022-07-23T08:59:34;101276.25;;;19.08;80.96
68594;BME280;55563;52.416;13.548;2022-07-23T09:01:35;101287.25;;;19.29;79.50
68594;BME280;55563;52.416;13.548;2022-07-23T09:03:36;101292.22;;;19.22;80.32
68594;BME280;55563;52.416;13.548;2022-07-23T09:05:39;101298.19;;;19.77;79.17
68594;BME280;55563;52.416;13.548;2022-07-23T09:08:04;101302.84;;;19.49;78.25
68594;BME280;55563;52.416;13.548;2022-07-23T09:10:07;101293.75;;;19.36;79.21
68594;BME280;55563;52.416;13.548;2022-07-23T09:12:10;101293.94;;;19.40;78.90
68594;BME280;55563;52.416;13.548;2022-07-23T09:14:10;101292.31;;;19.66;77.74
68594;BME280;55563;52.416;13.548;2022-07-23T09:16:15;101290.47;;;19.97;78.42
68594;BME280;55563;52.416;13.548;2022-07-23T09:18:16;101294.91;;;20.02;76.67
68594;BME280;55563;52.416;13.548;2022-07-23T09:20:17;101297.28;;;20.34;76.70
68594;BME280;55563;52.416;13.548;2022-07-23T09:22:26;101286.56;;;20.57;74.57
68594;BME280;55563;52.416;13.548;2022-07-23T09:24:27;101274.66;;;20.10;75.73
68594;BME280;55563;52.416;13.548;2022-07-23T09:26:38;101279.94;;;20.54;73.53
68594;BME280;55563;52.416;13.548;2022-07-23T09:28:50;101286.91;;;19.80;72.60
68594;BME280;55563;52.416;13.548;2022-07-23T09:30:51;101287.84;;;20.06;75.01
68594;BME280;55563;52.416;13.548;2022-07-23T09:33:13;101285.81;;;19.81;76.08
68594;BME280;55563;52.416;13.548;2022-07-23T09:35:14;101279.19;;;20.00;76.20
68594;BME280;55563;52.416;13.548;2022-07-23T09:37:17;101286.47;;;20.39;74.47
68594;BME280;55563;52.416;13.548;2022-07-23T09:39:29;101295.25;;;20.31;75.57
68594;BME280;55563;52.416;13.548;2022-07-23T09:41:35;101295.34;;;20.26;75.84
68594;BME280;55563;52.416;13.548;2022-07-23T09:43:36;101302.03;;;20.15;74.05
68594;BME280;55563;52.416;13.548;2022-07-23T09:45:37;101299.44;;;20.24;72.98
68594;BME280;55563;52.416;13.548;2022-07-23T09:47:39;101308.00;;;20.12;74.33
68594;BME280;55563;52.416;13.548;2022-07-23T09:49:40;101297.03;;;20.44;74.14
68594;BME280;55563;52.416;13.548;2022-07-23T09:51:52;101293.38;;;20.80;72.66
68594;BME280;55563;52.416;13.548;2022-07-23T09:53:54;101304.06;;;20.71;70.82
68594;BME280;55563;52.416;13.548;2022-07-23T09:55:55;101311.53;;;21.09;72.11
68594;BME280;55563;52.416;13.548;2022-07-23T09:57:58;101307.50;;;21.46;70.58
68594;BME280;55563;52.416;13.548;2022-07-23T10:00:00;101304.22;;;20.83;71.81
68594;BME280;55563;52.416;13.548;2022-07-23T10:02:02;101313.84;;;21.02;70.78
68594;BME280;55563;52.416;13.548;2022-07-23T10:04:11;101323.69;;;21.15;71.07
68594;BME280;55563;52.416;13.548;2022-07-23T10:06:33;101327.63;;;21.26;70.59
68594;BME280;55563;52.416;13.548;2022-07-23T10:08:56;101325.66;;;19.99;72.17
68594;BME280;55563;52.416;13.548;2022-07-23T10:11:19;101327.28;;;20.31;71.56
68594;BME280;55563;52.416;13.548;2022-07-23T10:13:27;101322.91;;;20.13;71.51
68594;BME280;55563;52.416;13.548;2022-07-23T10:15:48;101320.13;;;20.49;70.73
68594;BME280;55563;52.416;13.548;2022-07-23T10:17:50;101317.81;;;20.56;71.93
68594;BME280;55563;52.416;13.548;2022-07-23T10:19:50;101324.69;;;20.49;72.28
68594;BME280;55563;52.416;13.548;2022-07-23T10:21:53;101329.56;;;20.86;71.11
68594;BME280;55563;52.416;13.548;2022-07-23T10:24:04;101324.91;;;20.61;71.68
68594;BME280;55563;52.416;13.548;2022-07-23T10:26:15;101325.03;;;20.95;70.78
68594;BME280;55563;52.416;13.548;2022-07-23T10:31:00;101333.06;;;21.04;65.78
68594;BME280;55563;52.416;13.548;2022-07-23T10:33:24;101330.03;;;20.97;63.58
68594;BME280;55563;52.416;13.548;2022-07-23T10:37:45;101323.88;;;21.61;64.68
68594;BME280;55563;52.416;13.548;2022-07-23T10:39:46;101327.47;;;22.08;65.15